Time;durP1;ratioP1;P1;durP2;ratioP2;P2;SDS_P1;SDS_P2;PMS_P1;PMS_P2;Temp;Humidity;BMP_temperature;BMP_pressure;BME280_temperature;BME280_humidity;BME280_pressure;Samples;Min_cycle;Max_cycle;Signal;HPM_P1;HPM_P2
2022/10/08 00:00:14;;;;;;;;;;;;;;;16.80;69.80;101238.31;1024824;29;651;-74
2022/10/08 00:01:04;;;;;;;;;;;;;;;16.79;69.77;101239.28;1024306;29;642;-74
2022/10/08 00:01:55;;;;;;;;;;;;;;;16.91;69.57;101237.38;1024378;29;631;-73
2022/10/08 00:02:45;;;;;;;;;;;;;;;16.92;69.81;101234.56;1024168;29;552;-73
2022/10/08 00:03:36;;;;;;;;;;;;;;;16.76;69.06;101236.84;1024342;29;686;-74
2022/10/08 00:04:26;;;;;;;;;;;;;;;16.66;70.37;101235.91;1024212;29;647;-73
2022/10/08 00:05:16;;;;;;;;;;;;;;;16.70;69.75;101231.97;1024243;29;671;-74
2022/10/08 00:06:07;;;;;;;;;;;;;;;16.82;70.18;101233.66;1024948;29;627;-74
2022/10/08 00:06:57;;;;;;;;;;;;;;;16.91;69.39;101232.84;1024207;29;694;-74
2022/10/08 00:07:48;;;;;;;;;;;;;;;16.92;69.09;101229.16;1024382;29;631;-74
2022/10/08 00:08:38;;;;;;;;;;;;;;;16.91;69.81;101240.94;1024258;29;635;-74
2022/10/08 00:09:28;;;;;;;;;;;;;;;16.83;69.43;101240.75;1024234;29;738;-74
2022/10/08 00:10:19;;;;;;;;;;;;;;;16.93;69.72;101235.41;1024945;29;599;-75
2022/10/08 00:11:09;;;;;;;;;;;;;;;16.99;69.26;101230.38;1024322;29;737;-74
2022/10/08 00:12:00;;;;;;;;;;;;;;;16.94;69.67;101242.50;1024391;29;706;-74
2022/10/08 00:12:50;;;;;;;;;;;;;;;16.96;69.40;101246.78;1024292;29;635;-74
2022/10/08 00:13:41;;;;;;;;;;;;;;;17.00;69.94;101237.47;1024197;29;727;-74
2022/10/08 00:14:31;;;;;;;;;;;;;;;17.06;69.47;101243.28;1025680;29;619;-73
2022/10/08 00:15:21;;;;;;;;;;;;;;;16.95;69.59;101234.31;1025065;29;756;-74
2022/10/08 00:16:12;;;;;;;;;;;;;;;16.95;69.80;101242.38;1025647;29;635;-73
2022/10/08 00:17:02;;;;;;;;;;;;;;;16.88;69.06;101253.78;1025106;29;684;-73
2022/10/08 00:17:53;;;;;;;;;;;;;;;16.62;70.18;101250.59;1025042;29;698;-73
2022/10/08 00:18:43;;;;;;;;;;;;;;;16.53;71.31;101244.13;1025140;29;612;-74
2022/10/08 00:19:33;;;;;;;;;;;;;;;16.74;70.42;101251.41;1024852;29;1830;-72
2022/10/08 00:20:24;;;;;;;;;;;;;;;16.71;70.26;101248.97;1025703;29;542;-73
2022/10/08 00:21:15;;;;;;;;;;;;;;;16.84;69.84;101247.81;1025139;29;675;-74
2022/10/08 00:22:05;;;;;;;;;;;;;;;16.82;70.48;101255.19;1024950;29;643;-73
2022/10/08 00:22:56;;;;;;;;;;;;;;;16.93;69.87;101251.56;1025187;29;690;-73
2022/10/08 00:23:46;;;;;;;;;;;;;;;16.99;70.00;101246.53;1024506;29;672;-73
2022/10/08 00:24:38;;;;;;;;;;;;;;;17.03;69.85;101252.47;1025005;29;2009;-73
2022/10/08 00:25:29;;;;;;;;;;;;;;;17.02;69.22;101246.22;1025036;29;634;-73
2022/10/08 00:26:22;;;;;;;;;;;;;;;17.04;69.92;101250.63;1024995;29;631;-72
2022/10/08 00:27:12;;;;;;;;;;;;;;;16.88;70.13;101248.41;1025207;29;670;-73
2022/10/08 00:28:04;;;;;;;;;;;;;;;16.90;69.65;101247.28;1025477;29;705;-73
2022/10/08 00:28:54;;;;;;;;;;;;;;;16.96;69.58;101251.31;1025119;29;650;-72
2022/10/08 00:29:45;;;;;;;;;;;;;;;16.93;70.25;101246.19;1025033;29;683;-73
2022/10/08 00:30:36;;;;;;;;;;;;;;;16.89;69.48;101261.72;1020846;29;662;-74
2022/10/08 00:31:26;;;;;;;;;;;;;;;16.86;69.28;101256.59;1020228;29;639;-74
2022/10/08 00:32:18;;;;;;;;;;;;;;;16.85;69.45;101259.41;1024500;29;675;-74
2022/10/08 00:33:09;;;;;;;;;;;;;;;16.84;70.40;101255.88;1025180;29;709;-72
2022/10/08 00:33:59;;;;;;;;;;;;;;;16.81;70.62;101256.16;1025515;29;638;-73
2022/10/08 00:34:50;;;;;;;;;;;;;;;16.84;70.32;101255.88;1025083;29;749;-75
2022/10/08 00:35:40;;;;;;;;;;;;;;;16.92;70.32;101250.72;1024975;29;635;-73
2022/10/08 00:36:31;;;;;;;;;;;;;;;16.95;70.22;101249.59;1025003;29;643;-73
2022/10/08 00:37:21;;;;;;;;;;;;;;;16.94;69.86;101259.50;1025565;29;635;-74
2022/10/08 00:38:11;;;;;;;;;;;;;;;16.95;70.01;101261.22;1024551;29;658;-74
2022/10/08 00:39:02;;;;;;;;;;;;;;;16.90;70.39;101260.75;1025510;29;647;-74
2022/10/08 00:39:52;;;;;;;;;;;;;;;16.89;70.08;101261.72;1025002;29;730;-74
2022/10/08 00:40:43;;;;;;;;;;;;;;;16.69;69.85;101265.25;1024908;29;638;-74
2022/10/08 00:41:33;;;;;;;;;;;;;;;16.80;70.43;101259.84;1025556;29;709;-73
2022/10/08 00:42:24;;;;;;;;;;;;;;;16.91;70.24;101257.06;1025007;29;867;-73
2022/10/08 00:43:15;;;;;;;;;;;;;;;16.97;70.08;101255.72;1024925;29;753;-72
2022/10/08 00:44:05;;;;;;;;;;;;;;;17.01;69.35;101254.47;1025031;29;639;-73
2022/10/08 00:44:56;;;;;;;;;;;;;;;17.05;69.40;101260.41;1021427;29;1898;-74
2022/10/08 00:45:46;;;;;;;;;;;;;;;16.89;70.18;101260.88;1021595;29;635;-74
2022/10/08 00:46:37;;;;;;;;;;;;;;;16.70;69.47;101260.72;1021514;29;659;-74
2022/10/08 00:47:28;;;;;;;;;;;;;;;16.83;70.36;101259.59;1021681;29;651;-74
2022/10/08 00:48:24;;;;;;;;;;;;;;;16.87;70.30;101266.38;1021677;29;1449;-75
2022/10/08 00:49:14;;;;;;;;;;;;;;;16.83;70.28;101254.19;1021045;29;682;-74
2022/10/08 00:50:05;;;;;;;;;;;;;;;16.94;70.04;101254.13;1021603;29;686;-74
2022/10/08 00:50:55;;;;;;;;;;;;;;;16.97;70.48;101251.19;1021566;29;706;-72
2022/10/08 00:51:48;;;;;;;;;;;;;;;17.04;69.85;101258.72;1021647;29;663;-72
2022/10/08 00:52:39;;;;;;;;;;;;;;;17.05;69.70;101255.03;1021081;29;674;-73
2022/10/08 00:53:29;;;;;;;;;;;;;;;17.04;70.29;101258.72;1021623;29;694;-73
2022/10/08 00:54:19;;;;;;;;;;;;;;;17.06;69.55;101259.44;1021552;29;698;-73
2022/10/08 00:55:10;;;;;;;;;;;;;;;17.02;69.33;101257.00;1021580;29;729;-74
2022/10/08 00:56:00;;;;;;;;;;;;;;;17.05;69.55;101257.72;1021603;29;643;-74
2022/10/08 00:56:51;;;;;;;;;;;;;;;17.05;69.56;101255.91;1021404;29;707;-74
2022/10/08 00:57:42;;;;;;;;;;;;;;;17.02;69.95;101258.84;1021554;29;674;-74
2022/10/08 00:58:32;;;;;;;;;;;;;;;17.03;70.00;101255.16;1021939;29;717;-74
2022/10/08 00:59:23;;;;;;;;;;;;;;;17.02;69.56;101260.72;1021776;29;654;-74
2022/10/08 01:00:13;;;;;;;;;;;;;;;17.03;69.98;101255.16;1021768;29;783;-73
2022/10/08 01:01:04;;;;;;;;;;;;;;;17.04;69.47;101258.72;1021681;29;780;-75
2022/10/08 01:01:54;;;;;;;;;;;;;;;17.04;69.84;101253.31;1021653;29;643;-74
2022/10/08 01:02:45;;;;;;;;;;;;;;;17.03;69.58;101257.84;1021609;29;647;-75
2022/10/08 01:03:35;;;;;;;;;;;;;;;17.05;69.67;101258.59;1021690;29;635;-75
2022/10/08 01:04:26;;;;;;;;;;;;;;;17.02;70.12;101257.00;1021756;29;710;-74
2022/10/08 01:05:16;;;;;;;;;;;;;;;17.02;69.96;101254.31;1021616;29;628;-75
2022/10/08 01:06:06;;;;;;;;;;;;;;;17.07;69.89;101248.53;1021593;29;665;-75
2022/10/08 01:06:57;;;;;;;;;;;;;;;17.05;70.00;101249.66;1021106;29;706;-75
2022/10/08 01:07:48;;;;;;;;;;;;;;;17.06;70.37;101251.38;1021551;29;697;-75
2022/10/08 01:08:38;;;;;;;;;;;;;;;17.06;69.68;101245.97;1021685;29;764;-74
2022/10/08 01:09:29;;;;;;;;;;;;;;;17.06;69.67;101249.53;1021522;29;647;-73
2022/10/08 01:10:19;;;;;;;;;;;;;;;17.07;69.75;101236.91;1021528;29;650;-74
2022/10/08 01:11:09;;;;;;;;;;;;;;;17.06;69.63;101256.75;1021638;29;670;-73
2022/10/08 01:12:00;;;;;;;;;;;;;;;17.07;70.03;101247.69;1021313;29;721;-74
2022/10/08 01:12:50;;;;;;;;;;;;;;;17.09;69.79;101249.25;1021535;29;635;-73
2022/10/08 01:13:41;;;;;;;;;;;;;;;17.09;70.01;101243.03;1021431;29;733;-73
2022/10/08 01:14:31;;;;;;;;;;;;;;;17.05;69.87;101249.66;1021473;29;667;-74
2022/10/08 01:15:22;;;;;;;;;;;;;;;17.08;69.59;101250.25;1021437;29;654;-73
2022/10/08 01:16:12;;;;;;;;;;;;;;;17.05;69.91;101245.13;1020854;29;647;-73
2022/10/08 01:17:03;;;;;;;;;;;;;;;17.04;70.21;101246.09;1021588;29;698;-73
2022/10/08 01:17:53;;;;;;;;;;;;;;;17.07;70.17;101247.69;1021407;29;639;-73
2022/10/08 01:18:43;;;;;;;;;;;;;;;17.08;69.87;101249.41;1021576;29;658;-73
2022/10/08 01:19:34;;;;;;;;;;;;;;;17.07;70.51;101247.69;1021223;29;1255;-74
2022/10/08 01:20:24;;;;;;;;;;;;;;;17.05;69.99;101253.19;1021321;29;643;-73
2022/10/08 01:21:15;;;;;;;;;;;;;;;16.99;70.13;101253.75;1021529;29;639;-74
2022/10/08 01:22:05;;;;;;;;;;;;;;;16.96;69.57;101246.78;1021379;29;662;-74
2022/10/08 01:22:56;;;;;;;;;;;;;;;17.00;70.15;101248.22;1021594;29;718;-73
2022/10/08 01:23:46;;;;;;;;;;;;;;;17.04;69.75;101247.94;1021455;29;635;-74
2022/10/08 01:25:46;;;;;;;;;;;;;;;17.07;70.01;101242.31;1021055;29;643;-74
2022/10/08 01:26:36;;;;;;;;;;;;;;;17.05;69.42;101247.81;1021345;29;756;-73
2022/10/08 01:27:27;;;;;;;;;;;;;;;17.04;70.23;101251.50;1021453;29;678;-74
2022/10/08 01:28:17;;;;;;;;;;;;;;;17.05;70.43;101249.66;1021492;29;678;-74
2022/10/08 01:29:07;;;;;;;;;;;;;;;16.98;70.50;101250.19;1021433;29;647;-73
2022/10/08 01:29:58;;;;;;;;;;;;;;;16.97;70.63;101251.19;1021469;29;646;-73
2022/10/08 01:30:48;;;;;;;;;;;;;;;17.00;70.26;101250.06;1021295;29;636;-74
2022/10/08 01:31:39;;;;;;;;;;;;;;;17.04;69.58;101248.81;1021469;29;678;-74
2022/10/08 01:32:29;;;;;;;;;;;;;;;17.06;70.11;101248.66;1021387;29;621;-74
2022/10/08 01:33:21;;;;;;;;;;;;;;;16.99;70.52;101251.06;1021452;29;749;-74
2022/10/08 01:34:11;;;;;;;;;;;;;;;16.93;70.07;101249.72;1021518;29;709;-73
2022/10/08 01:35:02;;;;;;;;;;;;;;;16.94;70.47;101248.75;1021357;29;663;-73
2022/10/08 01:35:52;;;;;;;;;;;;;;;16.96;70.40;101252.16;1020893;29;674;-73
2022/10/08 01:36:43;;;;;;;;;;;;;;;17.02;70.38;101248.06;1020790;29;674;-73
2022/10/08 01:37:33;;;;;;;;;;;;;;;17.05;69.62;101249.66;1021304;29;675;-73
2022/10/08 01:38:24;;;;;;;;;;;;;;;17.06;70.00;101251.38;1021463;29;701;-73
2022/10/08 01:39:14;;;;;;;;;;;;;;;17.05;69.50;101257.72;1021331;29;678;-73
2022/10/08 01:40:05;;;;;;;;;;;;;;;16.99;69.84;101249.22;1021477;29;651;-73
2022/10/08 01:40:57;;;;;;;;;;;;;;;17.02;70.38;101249.94;1021378;29;627;-73
2022/10/08 01:41:48;;;;;;;;;;;;;;;16.87;70.63;101250.25;1021318;29;691;-73
2022/10/08 01:42:38;;;;;;;;;;;;;;;16.96;69.87;101252.16;1021367;29;627;-73
2022/10/08 01:43:30;;;;;;;;;;;;;;;16.96;70.30;101257.56;1021287;29;789;-73
2022/10/08 01:44:22;;;;;;;;;;;;;;;16.96;70.19;101254.00;1022463;29;1243;-74
2022/10/08 01:45:12;;;;;;;;;;;;;;;17.04;70.33;101254.19;1024788;29;650;-74
2022/10/08 01:46:02;;;;;;;;;;;;;;;17.02;70.23;101251.63;1024718;29;639;-74
2022/10/08 01:46:53;;;;;;;;;;;;;;;17.06;69.42;101254.06;1024848;29;798;-74
2022/10/08 01:47:44;;;;;;;;;;;;;;;17.05;70.32;101249.66;1024791;29;690;-74
2022/10/08 01:48:34;;;;;;;;;;;;;;;17.00;69.34;101248.22;1024833;29;710;-75
2022/10/08 01:49:25;;;;;;;;;;;;;;;16.99;69.65;101251.91;1024809;29;615;-74
2022/10/08 01:50:15;;;;;;;;;;;;;;;17.03;70.04;101247.09;1024664;29;632;-73
2022/10/08 01:51:06;;;;;;;;;;;;;;;17.06;70.02;101251.38;1024811;29;887;-73
2022/10/08 01:51:56;;;;;;;;;;;;;;;17.07;69.61;101247.69;1025150;29;737;-73
2022/10/08 01:52:46;;;;;;;;;;;;;;;16.99;69.24;101246.53;1024741;29;632;-72
2022/10/08 01:53:37;;;;;;;;;;;;;;;16.91;69.53;101249.00;1024592;29;630;-73
2022/10/08 01:54:27;;;;;;;;;;;;;;;16.97;70.23;101250.31;1024728;29;632;-73
2022/10/08 01:55:18;;;;;;;;;;;;;;;16.99;70.46;101243.84;1025016;29;694;-74
2022/10/08 01:56:08;;;;;;;;;;;;;;;16.96;70.20;101244.09;1024628;29;683;-74
2022/10/08 01:57:00;;;;;;;;;;;;;;;16.97;70.46;101248.50;1024752;29;667;-73
2022/10/08 01:57:50;;;;;;;;;;;;;;;16.98;70.14;101242.13;1024590;29;617;-73
2022/10/08 01:58:40;;;;;;;;;;;;;;;17.00;70.11;101245.53;1024706;29;749;-74
2022/10/08 01:59:31;;;;;;;;;;;;;;;17.01;69.68;101249.09;1024805;29;650;-74
2022/10/08 02:00:21;;;;;;;;;;;;;;;16.96;70.16;101246.78;1020343;29;706;-74
2022/10/08 02:01:12;;;;;;;;;;;;;;;16.98;70.50;101243.97;1020085;29;631;-74
2022/10/08 02:02:02;;;;;;;;;;;;;;;16.99;70.41;101249.22;1024604;29;654;-74
2022/10/08 02:02:53;;;;;;;;;;;;;;;16.99;70.57;101248.34;1024716;29;619;-73
2022/10/08 02:04:31;;;;;;;;;;;;;;;17.02;70.37;101251.63;1024775;29;812;-74
2022/10/08 02:04:54;;;;;;;;;;;;;;;17.06;69.81;101245.97;1024028;29;1895;-73
2022/10/08 02:05:44;;;;;;;;;;;;;;;17.06;69.43;101245.97;1024681;29;681;-73
2022/10/08 02:06:36;;;;;;;;;;;;;;;17.06;70.03;101252.22;1024757;29;698;-73
2022/10/08 02:07:27;;;;;;;;;;;;;;;17.05;70.10;101250.50;1024518;29;777;-73
2022/10/08 02:08:18;;;;;;;;;;;;;;;17.05;69.96;101255.03;1024730;29;675;-73
2022/10/08 02:09:08;;;;;;;;;;;;;;;17.05;69.93;101260.41;1024548;29;631;-73
2022/10/08 02:09:59;;;;;;;;;;;;;;;17.02;69.91;101257.00;1024931;29;737;-73
2022/10/08 02:10:49;;;;;;;;;;;;;;;17.02;70.44;101260.72;1025230;29;691;-73
2022/10/08 02:11:40;;;;;;;;;;;;;;;17.00;70.43;101259.00;1024749;29;622;-73
2022/10/08 02:12:30;;;;;;;;;;;;;;;17.02;70.16;101257.00;1024609;29;700;-73
2022/10/08 02:13:21;;;;;;;;;;;;;;;17.00;69.68;101263.53;1024690;29;639;-73
2022/10/08 02:14:11;;;;;;;;;;;;;;;16.98;70.46;101260.97;1024636;29;667;-72
2022/10/08 02:15:03;;;;;;;;;;;;;;;16.99;70.33;101257.28;1024795;29;755;-73
2022/10/08 02:15:53;;;;;;;;;;;;;;;17.01;69.96;101259.84;1024643;29;607;-73
2022/10/08 02:16:44;;;;;;;;;;;;;;;16.95;69.74;101255.84;1024665;29;633;-72
2022/10/08 02:17:34;;;;;;;;;;;;;;;17.00;70.45;101267.09;1024538;29;666;-73
2022/10/08 02:18:25;;;;;;;;;;;;;;;16.90;70.78;101265.28;1024737;29;698;-74
2022/10/08 02:19:15;;;;;;;;;;;;;;;16.87;71.07;101268.22;1025255;29;604;-74
2022/10/08 02:20:06;;;;;;;;;;;;;;;16.94;70.59;101255.97;1024655;29;682;-74
2022/10/08 02:20:57;;;;;;;;;;;;;;;16.96;70.14;101264.78;1024558;29;718;-73
2022/10/08 02:21:51;;;;;;;;;;;;;;;16.98;69.84;101262.81;1024636;29;702;-74
2022/10/08 02:22:43;;;;;;;;;;;;;;;16.97;70.42;101259.25;1024667;29;678;-73
2022/10/08 02:23:33;;;;;;;;;;;;;;;16.97;70.07;101264.66;1024551;29;654;-73
2022/10/08 02:24:24;;;;;;;;;;;;;;;16.92;69.96;101256.09;1024758;29;685;-72
2022/10/08 02:25:14;;;;;;;;;;;;;;;16.94;70.58;101264.03;1024686;29;710;-72
2022/10/08 02:26:05;;;;;;;;;;;;;;;16.98;70.27;101260.13;1024549;29;1153;-72
2022/10/08 02:26:55;;;;;;;;;;;;;;;16.97;70.06;101264.66;1024695;29;615;-74
2022/10/08 02:27:48;;;;;;;;;;;;;;;16.97;70.18;101266.47;1024100;29;687;-73
2022/10/08 02:28:38;;;;;;;;;;;;;;;16.92;70.44;101272.25;1024586;29;628;-73
2022/10/08 02:29:29;;;;;;;;;;;;;;;16.94;70.02;101264.91;1024000;29;714;-74
2022/10/08 02:30:19;;;;;;;;;;;;;;;16.95;69.83;101272.00;1024743;29;682;-74
2022/10/08 02:31:09;;;;;;;;;;;;;;;16.96;70.62;101268.31;1024559;29;670;-73
2022/10/08 02:32:00;;;;;;;;;;;;;;;16.97;70.42;101266.47;1024066;29;619;-74
2022/10/08 02:32:50;;;;;;;;;;;;;;;16.97;70.35;101264.66;1024611;29;682;-73
2022/10/08 02:33:41;;;;;;;;;;;;;;;16.97;69.98;101270.03;1024588;29;702;-74
2022/10/08 02:34:31;;;;;;;;;;;;;;;16.99;70.10;101272.59;1023924;29;686;-72
2022/10/08 02:35:24;;;;;;;;;;;;;;;17.00;70.05;101268.91;1024594;29;639;-73
2022/10/08 02:36:14;;;;;;;;;;;;;;;16.98;70.00;101276.28;1023582;28;686;-72
2022/10/08 02:37:04;;;;;;;;;;;;;;;16.98;70.17;101273.56;1024300;29;618;-74
2022/10/08 02:37:55;;;;;;;;;;;;;;;16.97;70.64;101275.41;1024630;29;639;-74
2022/10/08 02:38:46;;;;;;;;;;;;;;;16.97;70.22;101275.41;1024141;29;659;-74
2022/10/08 02:39:36;;;;;;;;;;;;;;;16.92;69.82;101271.38;1024510;29;667;-74
2022/10/08 02:40:26;;;;;;;;;;;;;;;16.95;70.19;101276.53;1024618;29;683;-72
2022/10/08 02:41:17;;;;;;;;;;;;;;;16.92;70.11;101266.88;1024680;29;628;-73
2022/10/08 02:42:07;;;;;;;;;;;;;;;16.94;70.55;101274.81;1024478;29;552;-73
2022/10/08 02:42:58;;;;;;;;;;;;;;;16.88;70.61;101269.94;1024652;29;639;-73
2022/10/08 02:43:48;;;;;;;;;;;;;;;16.91;70.61;101269.69;1024547;29;631;-74
2022/10/08 02:44:39;;;;;;;;;;;;;;;16.94;70.57;101270.28;1024389;29;1973;-73
2022/10/08 02:45:29;;;;;;;;;;;;;;;16.94;70.22;101272.13;1023981;29;639;-73
2022/10/08 02:46:20;;;;;;;;;;;;;;;16.98;70.52;101262.81;1024091;29;1229;-74
2022/10/08 02:47:10;;;;;;;;;;;;;;;16.96;70.00;101272.84;1024145;29;623;-74
2022/10/08 02:48:00;;;;;;;;;;;;;;;16.94;69.81;101270.28;1023942;29;670;-74
2022/10/08 02:48:51;;;;;;;;;;;;;;;16.94;70.24;101264.03;1024041;29;631;-72
2022/10/08 02:49:42;;;;;;;;;;;;;;;16.93;70.43;101273.97;1024117;29;690;-72
2022/10/08 02:50:33;;;;;;;;;;;;;;;16.94;70.39;101274.81;1024527;29;642;-72
2022/10/08 02:51:23;;;;;;;;;;;;;;;16.96;70.85;101271.00;1023979;29;710;-73
2022/10/08 02:52:15;;;;;;;;;;;;;;;16.98;69.88;101277.13;1024043;29;678;-72
2022/10/08 02:53:05;;;;;;;;;;;;;;;16.95;70.14;101276.53;1025010;29;658;-72
2022/10/08 02:53:56;;;;;;;;;;;;;;;16.96;69.78;101279.09;1024099;29;1023;-72
2022/10/08 02:54:46;;;;;;;;;;;;;;;16.97;70.20;101272.72;1023816;29;694;-73
2022/10/08 02:55:37;;;;;;;;;;;;;;;16.96;69.59;101281.78;1023995;29;647;-74
2022/10/08 02:56:27;;;;;;;;;;;;;;;16.94;70.49;101270.28;1023785;29;639;-73
2022/10/08 02:57:18;;;;;;;;;;;;;;;16.94;70.11;101275.66;1023922;29;639;-74
2022/10/08 02:58:09;;;;;;;;;;;;;;;16.93;69.78;101273.97;1024099;29;670;-74
2022/10/08 02:58:59;;;;;;;;;;;;;;;16.94;69.96;101270.28;1023834;29;682;-73
2022/10/08 02:59:49;;;;;;;;;;;;;;;16.96;70.02;101271.00;1023984;29;631;-73
2022/10/08 03:00:40;;;;;;;;;;;;;;;16.98;70.19;101273.56;1024120;29;671;-74
2022/10/08 03:01:30;;;;;;;;;;;;;;;16.96;70.17;101268.31;1023796;29;620;-73
2022/10/08 03:02:21;;;;;;;;;;;;;;;16.93;69.89;101271.25;1024139;29;698;-73
2022/10/08 03:03:11;;;;;;;;;;;;;;;16.92;70.39;101277.63;1023354;29;693;-74
2022/10/08 03:04:02;;;;;;;;;;;;;;;16.89;70.23;101272.50;1024019;29;635;-73
2022/10/08 03:04:52;;;;;;;;;;;;;;;16.92;69.82;101283.03;1023751;29;1924;-73
2022/10/08 03:05:43;;;;;;;;;;;;;;;16.91;70.21;101270.53;1023917;29;694;-73
2022/10/08 03:06:33;;;;;;;;;;;;;;;16.94;70.55;101280.19;1024079;29;646;-72
2022/10/08 03:07:25;;;;;;;;;;;;;;;16.84;69.99;101279.28;1023868;29;618;-73
2022/10/08 03:08:15;;;;;;;;;;;;;;;16.87;70.34;101281.69;1024598;29;705;-73
2022/10/08 03:09:06;;;;;;;;;;;;;;;16.90;70.13;101279.59;1023914;29;726;-73
2022/10/08 03:09:56;;;;;;;;;;;;;;;16.90;70.30;101274.22;1024019;29;749;-74
2022/10/08 03:10:46;;;;;;;;;;;;;;;16.90;70.27;101276.91;1023952;29;694;-74
2022/10/08 03:11:37;;;;;;;;;;;;;;;16.93;70.35;101279.34;1023961;29;721;-74
2022/10/08 03:12:27;;;;;;;;;;;;;;;16.93;70.29;101282.03;1023870;29;619;-74
2022/10/08 03:13:18;;;;;;;;;;;;;;;16.93;70.21;101282.03;1023973;29;627;-74
2022/10/08 03:14:08;;;;;;;;;;;;;;;16.89;70.54;101277.88;1024032;29;705;-74
2022/10/08 03:14:59;;;;;;;;;;;;;;;16.96;70.60;101278.22;1023935;29;629;-74
2022/10/08 03:15:49;;;;;;;;;;;;;;;16.93;70.02;101279.34;1024418;29;678;-74
2022/10/08 03:16:40;;;;;;;;;;;;;;;16.93;69.72;101284.72;1023980;29;642;-74
2022/10/08 03:17:31;;;;;;;;;;;;;;;16.91;70.43;101285.84;1023420;29;623;-73
2022/10/08 03:18:23;;;;;;;;;;;;;;;16.90;69.99;101290.38;1023949;29;721;-73
2022/10/08 03:19:13;;;;;;;;;;;;;;;16.88;70.45;101281.56;1023800;29;631;-73
2022/10/08 03:20:04;;;;;;;;;;;;;;;16.91;69.80;101292.06;1023956;29;619;-73
2022/10/08 03:20:57;;;;;;;;;;;;;;;16.92;70.31;101290.25;1024160;29;716;-74
2022/10/08 03:21:47;;;;;;;;;;;;;;;16.92;69.98;101290.25;1024554;29;717;-73
2022/10/08 03:22:37;;;;;;;;;;;;;;;16.89;69.78;101293.19;1024460;29;689;-75
2022/10/08 03:23:28;;;;;;;;;;;;;;;16.92;69.87;101296.47;1024542;29;635;-73
2022/10/08 03:24:18;;;;;;;;;;;;;;;16.92;70.20;101295.63;1023824;29;647;-73
2022/10/08 03:25:09;;;;;;;;;;;;;;;16.91;70.06;101293.91;1024541;29;725;-73
2022/10/08 03:25:59;;;;;;;;;;;;;;;16.89;70.65;101293.19;1024701;29;666;-73
2022/10/08 03:26:49;;;;;;;;;;;;;;;16.89;70.08;101296.72;1024411;29;611;-73
2022/10/08 03:27:40;;;;;;;;;;;;;;;16.90;70.10;101298.44;1024609;29;925;-72
2022/10/08 03:28:30;;;;;;;;;;;;;;;16.88;69.88;101296.84;1024379;29;646;-72
2022/10/08 03:29:21;;;;;;;;;;;;;;;16.93;70.76;101295.50;1024021;29;674;-73
2022/10/08 03:30:11;;;;;;;;;;;;;;;16.94;70.50;101305.28;1024468;29;623;-72
2022/10/08 03:31:02;;;;;;;;;;;;;;;16.93;70.05;101298.19;1024424;29;638;-73
2022/10/08 03:31:52;;;;;;;;;;;;;;;16.92;70.54;101296.47;1023570;29;731;-73
2022/10/08 03:32:42;;;;;;;;;;;;;;;16.92;69.81;101293.78;1024416;29;686;-73
2022/10/08 03:33:33;;;;;;;;;;;;;;;16.92;70.40;101291.09;1024526;29;634;-73
2022/10/08 03:34:23;;;;;;;;;;;;;;;16.90;69.96;101295.75;1024427;29;651;-73
2022/10/08 03:35:14;;;;;;;;;;;;;;;16.91;70.19;101297.47;1024383;29;713;-73
2022/10/08 03:36:05;;;;;;;;;;;;;;;16.93;70.38;101300.88;1024427;29;619;-73
2022/10/08 03:36:55;;;;;;;;;;;;;;;16.88;70.07;101303.09;1023784;29;702;-74
2022/10/08 03:37:46;;;;;;;;;;;;;;;16.91;70.35;101297.47;1024553;29;611;-75
2022/10/08 03:38:36;;;;;;;;;;;;;;;16.93;69.86;101305.41;1024927;29;670;-75
2022/10/08 03:39:27;;;;;;;;;;;;;;;16.91;70.37;101305.53;1024411;29;845;-75
2022/10/08 03:40:17;;;;;;;;;;;;;;;16.91;69.94;101308.22;1024499;29;697;-75
2022/10/08 03:41:11;;;;;;;;;;;;;;;16.89;70.87;101310.19;1024506;29;1055;-75
2022/10/08 03:42:02;;;;;;;;;;;;;;;16.90;70.20;101305.66;1024518;29;670;-75
2022/10/08 03:42:52;;;;;;;;;;;;;;;16.91;70.61;101308.22;1024295;29;639;-75
2022/10/08 03:43:43;;;;;;;;;;;;;;;16.90;69.92;101314.59;1024408;29;713;-74
2022/10/08 03:44:33;;;;;;;;;;;;;;;16.90;70.93;101311.91;1024308;29;1244;-75
2022/10/08 03:45:23;;;;;;;;;;;;;;;16.92;70.33;101311.78;1024354;29;627;-74
2022/10/08 03:46:14;;;;;;;;;;;;;;;16.92;70.55;101311.78;1024401;29;722;-74
2022/10/08 03:47:04;;;;;;;;;;;;;;;16.86;70.18;101315.81;1024889;29;694;-74
2022/10/08 03:47:55;;;;;;;;;;;;;;;16.88;70.65;101311.19;1024252;28;649;-74
2022/10/08 03:48:45;;;;;;;;;;;;;;;16.90;70.36;101313.75;1024391;29;843;-75
2022/10/08 03:49:36;;;;;;;;;;;;;;;16.88;70.08;101315.69;1024339;29;693;-74
2022/10/08 03:50:26;;;;;;;;;;;;;;;16.88;70.44;101316.56;1024442;29;615;-74
2022/10/08 03:51:16;;;;;;;;;;;;;;;16.91;69.84;101315.44;1024303;29;698;-74
2022/10/08 03:52:07;;;;;;;;;;;;;;;16.89;70.21;101320.97;1024463;29;647;-75
2022/10/08 03:52:57;;;;;;;;;;;;;;;16.87;70.80;101317.53;1024427;29;710;-74
2022/10/08 03:53:48;;;;;;;;;;;;;;;16.83;70.82;101316.13;1024390;29;626;-74
2022/10/08 03:54:38;;;;;;;;;;;;;;;16.82;70.34;101319.78;1023685;29;639;-74
2022/10/08 03:55:28;;;;;;;;;;;;;;;16.71;70.25;101322.50;1024323;29;650;-74
2022/10/08 03:56:25;;;;;;;;;;;;;;;16.77;71.13;101324.69;1023993;29;714;-73
2022/10/08 03:57:15;;;;;;;;;;;;;;;16.75;71.07;101321.25;1024277;29;627;-73
2022/10/08 03:58:06;;;;;;;;;;;;;;;16.82;69.90;101321.63;1024375;29;655;-73
2022/10/08 03:58:56;;;;;;;;;;;;;;;16.78;70.72;101326.41;1024322;29;741;-74
2022/10/08 03:59:47;;;;;;;;;;;;;;;16.81;70.29;101327.97;1020866;29;704;-74
2022/10/08 04:00:37;;;;;;;;;;;;;;;16.81;70.92;101326.16;1020554;29;694;-74
2022/10/08 04:01:27;;;;;;;;;;;;;;;16.80;70.35;101321.75;1020369;29;694;-73
2022/10/08 04:02:18;;;;;;;;;;;;;;;16.83;70.74;101326.03;1020489;29;686;-74
2022/10/08 04:03:08;;;;;;;;;;;;;;;16.85;70.85;101321.34;1020281;29;721;-73
2022/10/08 04:03:59;;;;;;;;;;;;;;;16.83;70.20;101320.63;1019866;29;686;-75
2022/10/08 04:04:49;;;;;;;;;;;;;;;16.87;70.32;101322.06;1020265;29;1895;-74
2022/10/08 04:05:40;;;;;;;;;;;;;;;16.84;70.27;101322.34;1020359;29;722;-73
2022/10/08 04:06:30;;;;;;;;;;;;;;;16.72;70.49;101324.22;1020477;29;679;-72
2022/10/08 04:07:21;;;;;;;;;;;;;;;16.77;70.47;101322.00;1020377;29;769;-72
2022/10/08 04:08:11;;;;;;;;;;;;;;;16.81;70.23;101326.16;1020384;29;725;-73
2022/10/08 04:09:01;;;;;;;;;;;;;;;16.84;70.85;101328.56;1020436;29;643;-73
2022/10/08 04:09:52;;;;;;;;;;;;;;;16.83;70.53;101332.25;1020370;29;635;-73
2022/10/08 04:10:42;;;;;;;;;;;;;;;16.84;70.80;101328.56;1020334;29;631;-73
2022/10/08 04:11:33;;;;;;;;;;;;;;;16.84;70.54;101322.34;1020456;29;738;-73
2022/10/08 04:12:23;;;;;;;;;;;;;;;16.83;70.78;101326.88;1020345;29;707;-72
2022/10/08 04:13:13;;;;;;;;;;;;;;;16.85;70.63;101324.88;1020316;29;659;-72
2022/10/08 04:14:04;;;;;;;;;;;;;;;16.83;70.80;101332.25;1020395;29;634;-73
2022/10/08 04:14:54;;;;;;;;;;;;;;;16.83;70.51;101329.56;1020296;29;841;-73
2022/10/08 04:15:46;;;;;;;;;;;;;;;16.80;70.86;101326.28;1019930;29;647;-73
2022/10/08 04:16:37;;;;;;;;;;;;;;;16.83;70.24;101332.25;1020293;29;1164;-73
2022/10/08 04:17:27;;;;;;;;;;;;;;;16.82;70.09;101335.09;1020325;29;655;-72
2022/10/08 04:18:18;;;;;;;;;;;;;;;16.82;70.44;101341.31;1020336;29;714;-72
2022/10/08 04:19:08;;;;;;;;;;;;;;;16.82;70.28;101329.69;1020416;29;607;-74
2022/10/08 04:19:58;;;;;;;;;;;;;;;16.83;70.38;101328.72;1020427;29;647;-74
2022/10/08 04:20:49;;;;;;;;;;;;;;;16.83;69.92;101334.97;1020340;29;666;-74
2022/10/08 04:21:39;;;;;;;;;;;;;;;16.84;70.14;101333.13;1020266;29;706;-75
2022/10/08 04:22:30;;;;;;;;;;;;;;;16.83;70.39;101332.25;1020376;29;647;-74
2022/10/08 04:23:20;;;;;;;;;;;;;;;16.84;70.54;101330.44;1020372;29;659;-74
2022/10/08 04:24:10;;;;;;;;;;;;;;;16.83;70.38;101332.25;1020404;29;638;-75
2022/10/08 04:25:01;;;;;;;;;;;;;;;16.84;69.87;101333.13;1020235;29;1918;-74
2022/10/08 04:25:51;;;;;;;;;;;;;;;16.83;70.27;101331.41;1020312;29;675;-75
2022/10/08 04:26:42;;;;;;;;;;;;;;;16.70;70.47;101331.56;1020533;29;733;-74
2022/10/08 04:27:32;;;;;;;;;;;;;;;16.73;70.73;101325.91;1020262;29;765;-74